Time;durP1;ratioP1;P1;durP2;ratioP2;P2;SDS_P1;SDS_P2;PMS_P1;PMS_P2;Temp;Humidity;BMP_temperature;BMP_pressure;BME280_temperature;BME280_humidity;BME280_pressure;Samples;Min_cycle;Max_cycle;Signal;HPM_P1;HPM_P2
2022/05/08 00:00:44;;;;;;;7.60;4.82;;;;;;;16.33;56.39;100274.19;7712859;32;40806;-73
2022/05/08 00:05:00;;;;;;;7.20;5.00;;;;;;;16.38;56.21;100267.78;7712625;32;37981;-73
2022/05/08 00:09:18;;;;;;;9.52;5.07;;;;;;;16.28;56.71;100263.25;7712650;32;36897;-73
2022/05/08 00:13:35;;;;;;;11.40;4.75;;;;;;;16.36;56.33;100259.84;7712561;32;39932;-73
2022/05/08 00:17:51;;;;;;;9.55;4.68;;;;;;;16.68;55.29;100255.47;7719680;32;39663;-72
2022/05/08 00:22:08;;;;;;;6.78;4.78;;;;;;;16.40;56.05;100255.38;7739101;32;37785;-72
2022/05/08 00:26:43;;;;;;;8.95;5.45;;;;;;;16.49;55.78;100245.31;7739093;32;37188;-72
2022/05/08 00:31:00;;;;;;;6.50;4.57;;;;;;;16.35;56.05;100247.22;7739316;32;39107;-73
2022/05/08 00:35:15;;;;;;;9.23;5.10;;;;;;;16.11;57.15;100241.81;7738491;32;39748;-73
2022/05/08 00:39:32;;;;;;;8.00;5.20;;;;;;;15.98;57.56;100237.84;7739213;32;38477;-73
2022/05/08 00:43:48;;;;;;;7.62;5.18;;;;;;;15.90;57.89;100230.25;7739231;32;37760;-73
2022/05/08 00:48:04;;;;;;;7.87;5.37;;;;;;;15.70;58.43;100234.91;7739090;32;39306;-73
2022/05/08 00:52:20;;;;;;;8.02;5.18;;;;;;;15.91;57.78;100226.41;7733225;32;40181;-73
2022/05/08 00:56:36;;;;;;;8.05;5.05;;;;;;;16.04;57.70;100235.81;7710887;32;37988;-73
2022/05/08 01:00:53;;;;;;;8.98;5.87;;;;;;;15.86;58.04;100229.22;7712176;32;37288;-72
2022/05/08 01:05:11;;;;;;;8.00;5.05;;;;;;;15.92;58.02;100228.84;7711510;32;39162;-72
2022/05/08 01:09:27;;;;;;;9.38;5.32;;;;;;;15.74;58.78;100224.13;7712729;32;40013;-73
2022/05/08 01:13:44;;;;;;;7.47;5.07;;;;;;;15.60;59.59;100226.78;7710700;32;37687;-73
2022/05/08 01:18:00;;;;;;;6.32;4.47;;;;;;;15.52;59.22;100230.19;7720960;32;37737;-73
2022/05/08 01:22:16;;;;;;;9.43;5.28;;;;;;;15.76;58.44;100230.16;7732249;32;40089;-73
2022/05/08 01:26:32;;;;;;;8.98;5.12;;;;;;;15.75;58.57;100223.87;7711874;32;39864;-73
2022/05/08 01:30:50;;;;;;;11.30;5.80;;;;;;;15.61;59.33;100227.59;7728889;32;37786;-72
2022/05/08 01:35:07;;;;;;;9.40;5.20;;;;;;;15.67;59.31;100234.66;7738563;32;37073;-72
2022/05/08 01:39:23;;;;;;;8.02;5.45;;;;;;;15.87;58.78;100225.38;7738436;32;40180;-73
2022/05/08 01:43:39;;;;;;;7.82;5.28;;;;;;;15.57;59.69;100233.69;7738102;32;40845;-74
2022/05/08 01:52:30;;;;;;;8.13;5.53;;;;;;;15.61;59.54;100231.19;7737002;32;37220;-73
2022/05/08 01:56:47;;;;;;;7.28;5.28;;;;;;;15.41;60.24;100232.25;7738369;32;40110;-74
2022/05/08 02:01:07;;;;;;;7.90;5.35;;;;;;;15.41;60.02;100229.50;7738236;32;39950;-74
2022/05/08 02:05:23;;;;;;;7.30;4.95;;;;;;;15.38;59.85;100232.81;7738034;32;38457;-73
2022/05/08 02:09:39;;;;;;;10.93;6.15;;;;;;;15.23;60.40;100222.84;7736612;32;38203;-73
2022/05/08 02:13:55;;;;;;;9.10;5.57;;;;;;;15.25;60.39;100217.88;7738105;32;39369;-73
2022/05/08 02:18:11;;;;;;;10.50;5.18;;;;;;;15.18;60.09;100220.97;7738178;32;39862;-73
2022/05/08 02:22:28;;;;;;;9.57;5.25;;;;;;;15.48;59.02;100223.66;7729616;32;38654;-73
2022/05/08 02:26:44;;;;;;;10.20;5.62;;;;;;;15.53;58.67;100224.41;7711205;32;38161;-72
2022/05/08 02:31:00;;;;;;;9.43;5.28;;;;;;;15.53;58.69;100220.84;7711111;32;39347;-72
2022/05/08 02:35:17;;;;;;;8.00;5.15;;;;;;;15.47;58.97;100216.50;7711075;32;40751;-72
2022/05/08 02:39:33;;;;;;;10.32;5.32;;;;;;;15.52;58.52;100220.03;7710894;32;38032;-72
2022/05/08 02:43:49;;;;;;;7.53;4.93;;;;;;;15.33;59.06;100221.91;7710790;32;37142;-73
2022/05/08 02:48:05;;;;;;;6.78;4.90;;;;;;;15.33;58.96;100219.16;7709590;32;39252;-73
2022/05/08 02:52:21;;;;;;;9.20;5.30;;;;;;;15.25;58.89;100220.63;7727803;32;41240;-73
2022/05/08 03:01:12;;;;;;;8.10;5.18;;;;;;;15.18;58.79;100220.16;7737411;32;37062;-73
2022/05/08 03:05:28;;;;;;;8.35;5.18;;;;;;;15.45;57.91;100218.72;7737060;32;39391;-73
2022/05/08 03:09:44;;;;;;;7.00;4.57;;;;;;;14.95;59.69;100222.59;7736912;32;40059;-72
2022/05/08 03:14:01;;;;;;;9.32;4.93;;;;;;;15.24;58.87;100223.66;7736957;32;38727;-73
2022/05/08 03:18:18;;;;;;;7.78;4.90;;;;;;;15.15;59.46;100223.50;7736990;32;36851;-73
2022/05/08 03:22:34;;;;;;;8.82;5.25;;;;;;;15.18;59.67;100226.47;7727100;32;40089;-73
2022/05/08 03:26:50;;;;;;;7.28;4.82;;;;;;;15.49;58.85;100226.09;7710068;32;39894;-73
2022/05/08 03:31:07;;;;;;;7.80;5.25;;;;;;;15.56;58.80;100234.00;7709764;32;38758;-72
2022/05/08 03:35:23;;;;;;;9.27;5.45;;;;;;;15.37;59.69;100226.53;7709873;32;37039;-72
2022/05/08 03:39:39;;;;;;;7.28;5.32;;;;;;;15.13;60.70;100234.75;7722465;32;39612;-73
2022/05/08 03:43:55;;;;;;;9.77;5.20;;;;;;;15.19;60.79;100232.78;7736355;32;41214;-72
2022/05/08 03:48:12;;;;;;;7.43;4.97;;;;;;;14.97;61.63;100241.50;7736142;32;38538;-73
2022/05/08 03:52:28;;;;;;;9.43;5.30;;;;;;;15.11;61.41;100236.97;7734326;32;37062;-73
2022/05/08 03:56:44;;;;;;;7.05;4.87;;;;;;;15.32;60.37;100248.56;7736106;32;39233;-72
2022/05/08 04:01:00;;;;;;;7.50;4.90;;;;;;;15.36;60.27;100244.09;7735836;32;40722;-73
2022/05/08 04:05:16;;;;;;;8.95;5.32;;;;;;;15.39;60.64;100248.22;7735560;32;37918;-72
2022/05/08 04:09:32;;;;;;;6.15;4.32;;;;;;;15.56;60.17;100254.03;7738526;32;36989;-72
2022/05/08 04:13:48;;;;;;;7.68;4.97;;;;;;;15.82;59.37;100251.00;7739476;32;40067;-73
2022/05/08 04:18:04;;;;;;;8.38;5.10;;;;;;;15.83;59.13;100263.59;7739184;32;39917;-73
2022/05/08 04:26:55;;;;;;;7.07;4.75;;;;;;;15.94;58.81;100264.31;7739420;32;37854;-74
2022/05/08 04:31:11;;;;;;;6.53;4.47;;;;;;;15.96;58.73;100262.06;7737082;32;40447;-72
2022/05/08 04:35:27;;;;;;;9.38;4.68;;;;;;;16.02;58.74;100266.38;7712453;32;39611;-72
2022/05/08 04:39:43;;;;;;;12.88;5.05;;;;;;;16.10;58.46;100270.41;7712362;32;37770;-72
2022/05/08 04:44:00;;;;;;;9.70;4.97;;;;;;;16.31;57.57;100271.72;7712428;32;36796;-73
2022/05/08 04:48:17;;;;;;;7.35;4.87;;;;;;;16.40;57.99;100265.56;7712363;32;39487;-72
2022/05/08 04:52:33;;;;;;;7.50;4.53;;;;;;;16.42;57.62;100264.16;7721275;32;40847;-74
2022/05/08 04:56:49;;;;;;;7.30;4.45;;;;;;;16.51;57.91;100265.09;7738651;32;38902;-74
2022/05/08 05:01:05;;;;;;;9.98;4.90;;;;;;;16.43;60.25;100276.78;7739055;32;37793;-74
2022/05/08 05:05:22;;;;;;;6.70;4.65;;;;;;;16.40;60.45;100277.41;7738979;32;39098;-73
2022/05/08 05:09:38;;;;;;;6.95;5.20;;;;;;;16.27;60.87;100278.13;7738844;32;40004;-73
2022/05/08 05:13:54;;;;;;;10.70;5.05;;;;;;;16.17;61.32;100279.09;7738593;32;38741;-74
2022/05/08 05:18:10;;;;;;;7.87;5.55;;;;;;;16.42;60.18;100286.16;7729183;32;37362;-73
2022/05/08 05:22:26;;;;;;;7.85;5.22;;;;;;;16.68;59.92;100294.03;7721316;32;39484;-72
2022/05/08 05:26:43;;;;;;;10.80;5.07;;;;;;;16.56;58.75;100294.47;7738719;32;40783;-73
2022/05/08 05:30:59;;;;;;;7.43;4.85;;;;;;;16.83;56.53;100292.94;7738548;32;38766;-81
2022/05/08 05:35:15;;;;;;;10.20;4.85;;;;;;;17.17;57.11;100297.34;7738531;32;37050;-72
2022/05/08 05:39:31;;;;;;;8.52;4.75;;;;;;;17.42;56.65;100296.84;7738595;32;39171;-73
2022/05/08 05:43:47;;;;;;;6.15;4.85;;;;;;;17.54;57.59;100307.38;7727951;32;40643;-72
2022/05/08 05:48:04;;;;;;;8.65;4.50;;;;;;;17.86;57.53;100311.16;7736761;32;37690;-74
2022/05/08 05:52:20;;;;;;;7.25;4.45;;;;;;;18.07;55.40;100316.25;7711794;32;37063;-74
2022/05/08 05:56:36;;;;;;;9.63;4.50;;;;;;;18.26;55.02;100319.66;7711493;32;40087;-74
2022/05/08 06:00:52;;;;;;;6.70;4.20;;;;;;;18.20;54.79;100321.72;7714756;32;40029;-73
2022/05/08 06:05:08;;;;;;;6.95;4.55;;;;;;;18.21;54.77;100317.03;7736511;32;38036;-73
2022/05/08 06:09:24;;;;;;;6.62;4.60;;;;;;;18.58;54.74;100326.13;7738034;32;37314;-73
2022/05/08 06:13:40;;;;;;;7.85;3.87;;;;;;;18.70;53.87;100325.56;7737927;32;39425;-73
2022/05/08 06:17:57;;;;;;;6.75;4.32;;;;;;;19.17;53.92;100319.72;7737905;32;39996;-73
2022/05/08 06:22:13;;;;;;;6.95;4.80;;;;;;;19.00;54.25;100324.00;7738090;32;37888;-73
2022/05/08 06:26:29;;;;;;;8.95;4.82;;;;;;;19.28;53.76;100323.84;7737978;32;36986;-73
2022/05/08 06:30:47;;;;;;;6.80;4.70;;;;;;;19.33;55.13;100320.94;7735884;32;40584;-74
2022/05/08 06:35:03;;;;;;;11.75;5.60;;;;;;;19.35;54.68;100320.62;7737701;32;40191;-73
2022/05/08 06:39:19;;;;;;;9.02;5.53;;;;;;;19.20;54.07;100321.87;7737399;32;38006;-73
2022/05/08 06:43:36;;;;;;;11.25;5.68;;;;;;;19.24;52.95;100329.19;7737601;32;37217;-74
2022/05/08 06:47:52;;;;;;;7.35;5.12;;;;;;;18.87;53.58;100327.69;7737437;32;40118;-73
2022/05/08 06:52:08;;;;;;;9.32;5.20;;;;;;;18.17;55.23;100333.38;7737211;32;40703;-73
2022/05/08 06:56:26;;;;;;;8.45;5.20;;;;;;;18.94;53.66;100339.09;7737238;32;38661;-74
2022/05/08 07:05:17;;;;;;;8.80;5.18;;;;;;;19.06;53.00;100328.28;7724423;32;40192;-74
2022/05/08 07:09:34;;;;;;;10.82;4.90;;;;;;;19.26;53.25;100329.69;7710179;32;39899;-74
2022/05/08 07:13:51;;;;;;;7.12;4.80;;;;;;;19.74;53.00;100327.28;7709879;32;38146;-74
2022/05/08 07:18:07;;;;;;;10.27;5.20;;;;;;;20.21;52.70;100325.66;7709909;32;36850;-73
2022/05/08 07:22:23;;;;;;;9.30;4.90;;;;;;;20.26;51.85;100317.19;7708588;32;40135;-73
2022/05/08 07:26:39;;;;;;;7.47;5.20;;;;;;;20.06;51.91;100318.63;7709824;32;39892;-73
2022/05/08 07:30:55;;;;;;;8.73;5.05;;;;;;;19.33;53.55;100326.47;7709816;32;37733;-74
2022/05/08 07:39:46;;;;;;;8.98;5.15;;;;;;;19.24;52.71;100333.91;7709709;32;40008;-73
2022/05/08 07:44:02;;;;;;;13.45;5.37;;;;;;;19.40;52.33;100339.84;7711723;32;39959;-73
2022/05/08 07:48:18;;;;;;;9.63;6.47;;;;;;;19.63;52.76;100337.84;7713026;32;38021;-73
2022/05/08 07:52:39;;;;;;;8.00;5.22;;;;;;;20.12;51.58;100333.13;7713608;32;37783;-74
2022/05/08 07:56:55;;;;;;;6.82;4.53;;;;;;;19.80;52.41;100342.63;7731545;32;39385;-74
2022/05/08 08:01:11;;;;;;;9.10;5.25;;;;;;;20.23;51.58;100325.31;7739680;32;40917;-79
2022/05/08 08:05:27;;;;;;;7.95;5.30;;;;;;;20.05;52.24;100335.53;7739230;32;37981;-73
2022/05/08 08:09:43;;;;;;;7.93;4.75;;;;;;;20.39;51.65;100336.75;7739473;32;37488;-73
2022/05/08 08:13:59;;;;;;;9.18;5.07;;;;;;;21.03;49.38;100333.31;7738191;32;40451;-73
2022/05/08 08:18:16;;;;;;;7.72;4.45;;;;;;;21.41;49.22;100337.28;7739375;32;40662;-74
2022/05/08 08:22:33;;;;;;;7.62;4.62;;;;;;;21.63;46.90;100328.75;7739099;32;37940;-73
2022/05/08 08:26:49;;;;;;;7.35;4.20;;;;;;;21.36;45.52;100325.22;7711527;32;37569;-73
2022/05/08 08:31:07;;;;;;;7.15;4.37;;;;;;;21.76;47.69;100322.13;7709784;32;38962;-73
2022/05/08 08:35:23;;;;;;;7.00;4.10;;;;;;;21.63;46.36;100327.91;7710232;32;40801;-73
2022/05/08 08:39:39;;;;;;;8.80;4.30;;;;;;;22.22;44.76;100327.91;7707107;32;152389;-73
2022/05/08 08:48:34;;;;;;;6.40;4.37;;;;;;;22.27;42.17;100330.53;7711341;32;40057;-73
2022/05/08 08:52:51;;;;;;;5.05;3.78;;;;;;;23.08;43.51;100324.78;7711229;32;40370;-75
2022/05/08 08:57:07;;;;;;;10.10;3.75;;;;;;;23.22;39.53;100325.28;7711435;32;38031;-73
2022/05/08 09:01:23;;;;;;;5.30;3.53;;;;;;;23.31;38.05;100327.16;7712074;32;37899;-73
2022/05/08 09:05:40;;;;;;;6.45;3.33;;;;;;;23.56;37.02;100333.53;7711891;32;39005;-73
2022/05/08 09:10:19;;;;;;;4.32;3.20;;;;;;;22.98;34.36;100336.31;7712092;32;40818;-73
2022/05/08 09:14:36;;;;;;;6.80;3.42;;;;;;;23.53;33.49;100328.69;7709910;32;38698;-73
2022/05/08 09:18:52;;;;;;;5.15;3.17;;;;;;;23.50;33.52;100324.63;7709474;32;37795;-73
2022/05/08 09:23:13;;;;;;;4.80;2.90;;;;;;;23.36;34.00;100318.56;7731019;32;40015;-74
2022/05/08 09:27:29;;;;;;;4.45;3.20;;;;;;;23.88;33.05;100317.91;7734524;32;40165;-86
2022/05/08 09:31:45;;;;;;;4.87;3.40;;;;;;;24.05;35.04;100311.28;7728391;32;37848;-82
2022/05/08 09:36:30;;;;;;;9.07;3.72;;;;;;;23.67;32.59;100320.00;7725001;32;37079;-70
2022/05/08 09:41:04;;;;;;;11.60;3.33;;;;;;;23.71;34.96;100316.16;7729435;32;40034;-74
2022/05/08 09:45:20;;;;;;;6.68;3.75;;;;;;;24.10;34.59;100307.47;7735214;32;40007;-75
2022/05/08 09:49:37;;;;;;;8.90;3.65;;;;;;;24.31;34.66;100307.28;7711191;32;38347;-74
2022/05/08 09:53:53;;;;;;;8.00;3.72;;;;;;;24.44;36.58;100305.28;7725444;32;35855;-73
2022/05/08 09:58:09;;;;;;;5.78;3.60;;;;;;;24.30;37.85;100303.72;7723934;32;39050;-73
2022/05/08 10:02:25;;;;;;;6.03;3.70;;;;;;;23.84;37.42;100305.88;7730465;32;39903;-73
2022/05/08 10:06:41;;;;;;;5.00;3.37;;;;;;;24.05;36.73;100293.78;7718927;32;38739;-74
2022/05/08 10:16:01;;;;;;;5.15;3.65;;;;;;;24.33;37.04;100286.25;7706605;32;39427;-74
2022/05/08 10:20:40;;;;;;;4.75;3.10;;;;;;;25.39;33.95;100294.37;7711945;32;40002;-73
2022/05/08 10:25:09;;;;;;;6.25;3.10;;;;;;;25.94;33.18;100283.38;7710740;32;36989;-73
2022/05/08 10:29:25;;;;;;;5.90;3.08;;;;;;;25.84;32.64;100273.53;7721578;32;36777;-73
2022/05/08 10:34:07;;;;;;;5.07;3.15;;;;;;;24.85;33.22;100275.41;7738038;32;39383;-74
2022/05/08 10:38:24;;;;;;;4.80;3.40;;;;;;;25.58;32.97;100273.31;7737795;32;40561;-73
2022/05/08 10:42:45;;;;;;;8.25;3.37;;;;;;;25.97;33.02;100267.84;7737709;32;38062;-72
2022/05/08 10:47:33;;;;;;;5.30;3.40;;;;;;;25.17;33.82;100267.87;7736763;32;37195;-72
2022/05/08 10:51:49;;;;;;;9.68;3.58;;;;;;;25.10;34.84;100271.31;7730900;32;40610;-73
2022/05/08 10:56:09;;;;;;;7.25;3.62;;;;;;;24.56;35.34;100274.63;7736179;32;40638;-72
2022/05/08 11:00:27;;;;;;;10.40;3.62;;;;;;;25.01;35.42;100267.87;7737277;32;38056;-71
2022/05/08 11:04:53;;;;;;;4.40;3.15;;;;;;;25.04;33.80;100258.81;7737137;32;37112;-72
2022/05/08 11:09:09;;;;;;;3.92;2.90;;;;;;;25.58;33.77;100256.56;7737231;32;40115;-73
2022/05/08 11:13:36;;;;;;;5.65;3.60;;;;;;;26.42;31.11;100247.69;7735837;32;40707;-73
2022/05/08 11:18:07;;;;;;;5.22;3.20;;;;;;;26.20;29.66;100248.41;7732212;32;37878;-73
2022/05/08 11:22:23;;;;;;;5.72;3.75;;;;;;;25.70;32.37;100252.84;7736922;32;37395;-74
2022/05/08 11:26:39;;;;;;;14.07;3.62;;;;;;;25.75;31.58;100244.19;7736894;32;39017;-73
2022/05/08 11:30:59;;;;;;;6.40;3.53;;;;;;;25.45;33.09;100245.50;7736635;32;39809;-74
2022/05/08 11:39:50;;;;;;;5.97;3.58;;;;;;;26.27;32.27;100233.75;7721427;32;37729;-74
2022/05/08 11:44:28;;;;;;;5.62;3.37;;;;;;;26.73;29.72;100236.69;7735110;32;39286;-75
2022/05/08 11:48:47;;;;;;;4.35;3.20;;;;;;;26.93;29.57;100232.66;7736233;32;40788;-74
2022/05/08 11:53:03;;;;;;;9.70;3.55;;;;;;;25.95;31.41;100231.09;7735914;32;38024;-74
2022/05/08 11:57:24;;;;;;;6.43;2.92;;;;;;;26.62;30.69;100225.31;7735974;32;37982;-73
2022/05/08 12:01:47;;;;;;;4.87;3.05;;;;;;;26.73;31.00;100219.91;7735481;32;39462;-74
2022/05/08 12:06:13;;;;;;;8.70;3.60;;;;;;;27.12;31.38;100223.41;7718752;32;41012;-73
2022/05/08 12:10:40;;;;;;;8.40;3.08;;;;;;;27.01;29.43;100221.59;7732283;32;37863;-75
2022/05/08 12:15:09;;;;;;;5.30;3.10;;;;;;;26.39;29.87;100219.66;7712758;32;36930;-73
2022/05/08 12:19:25;;;;;;;7.12;3.30;;;;;;;27.12;30.18;100215.00;7708545;32;39293;-73
2022/05/08 12:23:47;;;;;;;17.85;3.75;;;;;;;26.92;29.94;100205.91;7708426;32;40065;-73
2022/05/08 12:28:04;;;;;;;10.45;3.30;;;;;;;27.44;29.58;100202.75;7708454;32;38130;-73
2022/05/08 12:32:20;;;;;;;3.92;3.03;;;;;;;27.87;26.86;100192.16;7730138;32;36722;-73
2022/05/08 12:36:40;;;;;;;4.20;2.90;;;;;;;28.20;26.60;100182.19;7728717;32;39358;-73
2022/05/08 12:40:58;;;;;;;4.80;3.00;;;;;;;28.26;26.27;100181.47;7717545;32;39975;-74
2022/05/08 12:45:14;;;;;;;5.07;2.90;;;;;;;27.81;25.62;100185.28;7716682;32;37499;-74
2022/05/08 12:49:31;;;;;;;5.32;2.78;;;;;;;27.10;27.84;100175.41;7735876;32;37794;-73
2022/05/08 12:53:47;;;;;;;5.37;3.22;;;;;;;27.62;28.19;100178.63;7737427;32;39246;-73
2022/05/08 13:02:38;;;;;;;4.00;2.95;;;;;;;27.55;28.42;100170.13;7737236;32;38844;-74
2022/05/08 13:06:54;;;;;;;4.68;3.05;;;;;;;27.24;27.66;100177.62;7727826;32;36834;-74
2022/05/08 13:11:10;;;;;;;3.92;3.00;;;;;;;27.09;29.35;100175.78;7738154;32;40086;-74
2022/05/08 13:15:26;;;;;;;6.05;3.45;;;;;;;26.92;28.83;100161.16;7725243;32;40696;-74
2022/05/08 13:19:42;;;;;;;4.07;2.90;;;;;;;27.08;28.19;100163.78;7726426;32;38703;-73
2022/05/08 13:23:59;;;;;;;4.20;3.10;;;;;;;27.04;28.78;100164.91;7726570;32;37065;-75
2022/05/08 13:28:15;;;;;;;7.62;3.00;;;;;;;26.46;29.94;100163.88;7738525;32;40078;-73
2022/05/08 13:32:31;;;;;;;12.68;3.00;;;;;;;27.09;30.49;100151.41;7738526;32;40701;-73
2022/05/08 13:36:47;;;;;;;5.57;2.75;;;;;;;27.71;28.17;100148.34;7738517;32;37880;-74
2022/05/08 13:41:03;;;;;;;8.13;3.15;;;;;;;27.09;27.42;100150.59;7719591;32;37834;-72
2022/05/08 13:45:19;;;;;;;6.50;3.30;;;;;;;27.39;27.81;100156.31;7711623;32;39195;-72
2022/05/08 13:49:36;;;;;;;15.73;3.75;;;;;;;27.64;29.91;100159.44;7712684;32;40782;-72
2022/05/08 13:53:52;;;;;;;4.30;3.10;;;;;;;27.50;30.53;100162.06;7727998;32;38037;-72
2022/05/08 13:58:10;;;;;;;6.12;3.42;;;;;;;27.00;31.40;100155.66;7724589;32;37965;-72
2022/05/08 14:02:27;;;;;;;5.82;3.50;;;;;;;26.75;31.77;100150.44;7723065;32;40044;-74
2022/05/08 14:06:43;;;;;;;8.93;3.90;;;;;;;26.59;31.30;100156.13;7736298;32;39328;-73
2022/05/08 14:11:00;;;;;;;10.73;3.30;;;;;;;26.52;32.21;100156.00;7735271;32;38717;-72
2022/05/08 14:15:16;;;;;;;8.25;3.25;;;;;;;25.96;33.43;100160.91;7723337;32;37631;-72
2022/05/08 14:19:32;;;;;;;6.20;3.30;;;;;;;25.99;33.88;100159.34;7724908;32;39312;-73
2022/05/08 14:23:48;;;;;;;5.07;3.50;;;;;;;26.08;33.24;100157.16;7711062;32;39991;-79
2022/05/08 14:28:05;;;;;;;5.03;3.50;;;;;;;25.64;36.26;100171.34;7711150;32;38767;-81
2022/05/08 14:37:01;;;;;;;9.90;3.97;;;;;;;25.24;36.01;100169.63;7710975;32;39448;-75
2022/05/08 14:41:17;;;;;;;6.72;4.28;;;;;;;25.13;36.34;100163.78;7710906;32;39919;-76
2022/05/08 14:45:34;;;;;;;6.15;4.00;;;;;;;24.56;36.10;100179.87;7710755;32;38535;-76
2022/05/08 14:49:50;;;;;;;7.12;4.10;;;;;;;24.30;36.65;100169.16;7710866;32;37153;-75
2022/05/08 14:54:08;;;;;;;7.45;4.10;;;;;;;23.74;37.42;100167.13;7711460;32;41450;-75
2022/05/08 14:58:26;;;;;;;8.63;5.00;;;;;;;23.83;38.54;100172.59;7710790;32;39952;-75
2022/05/08 15:02:48;;;;;;;7.40;4.07;;;;;;;23.42;38.10;100173.34;7710447;32;36803;-76
2022/05/08 15:07:07;;;;;;;6.53;3.85;;;;;;;23.57;38.19;100169.00;7724241;32;37831;-76
2022/05/08 15:11:23;;;;;;;6.47;3.70;;;;;;;23.81;38.68;100172.94;7737147;32;39378;-75
2022/05/08 15:15:39;;;;;;;6.95;4.03;;;;;;;23.97;38.34;100181.34;7736939;32;40798;-75
2022/05/08 15:19:58;;;;;;;6.45;3.92;;;;;;;24.10;39.88;100182.13;7713960;32;37940;-76
2022/05/08 15:24:17;;;;;;;7.53;3.87;;;;;;;23.75;39.93;100188.22;7720137;32;37262;-76
2022/05/08 15:28:34;;;;;;;7.97;4.45;;;;;;;23.74;40.35;100184.62;7702574;32;40003;-77
2022/05/08 15:32:51;;;;;;;9.32;4.05;;;;;;;23.36;42.27;100199.75;7735251;32;39817;-77
2022/05/08 15:37:10;;;;;;;6.90;4.35;;;;;;;23.70;40.64;100182.91;7712206;32;38716;-76
2022/05/08 15:41:33;;;;;;;13.20;4.57;;;;;;;23.39;41.34;100189.94;7709108;32;37109;-75
2022/05/08 15:45:54;;;;;;;8.57;4.00;;;;;;;23.58;42.37;100184.56;7708843;32;40134;-75
2022/05/08 15:50:12;;;;;;;7.00;4.45;;;;;;;23.34;42.31;100187.38;7707682;32;39869;-77
2022/05/08 15:54:28;;;;;;;9.70;4.47;;;;;;;23.23;44.44;100182.28;7707986;32;37172;-75
2022/05/08 15:58:45;;;;;;;10.55;4.53;;;;;;;23.49;44.60;100181.09;7730411;32;37006;-76
2022/05/08 16:03:02;;;;;;;9.07;4.43;;;;;;;23.93;42.82;100175.69;7735738;32;39260;-76
2022/05/08 16:07:19;;;;;;;5.47;3.70;;;;;;;23.84;41.22;100191.72;7738193;32;39903;-76
2022/05/08 16:11:35;;;;;;;7.53;4.97;;;;;;;23.89;37.92;100190.69;7738982;32;37738;-75
2022/05/08 16:25:01;;;;;;;4.72;2.70;;;;;;;23.54;36.56;100197.56;7739073;32;40789;-76
2022/05/08 16:29:18;;;;;;;4.32;2.33;;;;;;;23.54;35.05;100203.13;7738460;32;37765;-75
2022/05/08 16:33:34;;;;;;;8.63;2.53;;;;;;;23.45;34.68;100199.63;7738778;32;37071;-75
2022/05/08 16:37:52;;;;;;;4.43;2.45;;;;;;;23.18;35.60;100206.72;7738458;32;40071;-75
2022/05/08 16:42:08;;;;;;;4.20;2.60;;;;;;;23.23;36.16;100212.88;7738377;32;40732;-75
2022/05/08 16:46:24;;;;;;;7.18;3.10;;;;;;;23.02;36.42;100210.13;7737070;32;38775;-72
2022/05/08 16:50:44;;;;;;;4.40;2.62;;;;;;;22.82;36.40;100222.97;7711426;32;37343;-74
2022/05/08 16:55:00;;;;;;;3.90;2.45;;;;;;;22.65;37.45;100235.09;7710634;32;39347;-75
2022/05/08 16:59:17;;;;;;;12.68;3.10;;;;;;;22.53;37.72;100237.03;7711170;32;41012;-75
2022/05/08 17:03:33;;;;;;;6.45;2.60;;;;;;;22.35;37.55;100230.81;7711697;32;38102;-76
2022/05/08 17:07:49;;;;;;;8.20;2.75;;;;;;;22.34;38.13;100235.56;7712331;32;37197;-75
2022/05/08 17:12:06;;;;;;;4.78;2.78;;;;;;;22.36;37.38;100240.78;7723655;32;39196;-75
2022/05/08 17:16:22;;;;;;;4.78;2.55;;;;;;;22.28;38.30;100239.69;7712407;32;39954;-76
2022/05/08 17:20:39;;;;;;;5.12;2.50;;;;;;;22.13;38.77;100236.34;7738853;32;38154;-75
2022/05/08 17:24:59;;;;;;;3.67;2.50;;;;;;;22.03;39.61;100235.94;7720602;32;36987;-76
2022/05/08 17:29:16;;;;;;;5.22;3.15;;;;;;;21.96;39.66;100242.03;7711894;32;39161;-74
2022/05/08 17:33:32;;;;;;;6.32;3.10;;;;;;;21.62;41.22;100243.87;7711736;32;39945;-73
2022/05/08 17:37:48;;;;;;;7.62;3.28;;;;;;;21.95;40.20;100259.81;7711636;32;38746;-76
2022/05/08 17:42:04;;;;;;;11.25;3.40;;;;;;;21.70;41.93;100268.00;7711659;32;37861;-76
2022/05/08 17:46:21;;;;;;;8.73;3.28;;;;;;;21.65;42.11;100265.41;7720479;32;40059;-75
2022/05/08 17:50:39;;;;;;;5.18;3.33;;;;;;;21.12;43.71;100267.56;7738595;32;38289;-76
2022/05/08 17:54:56;;;;;;;10.07;3.50;;;;;;;21.17;42.27;100284.03;7737966;32;38706;-75
2022/05/08 17:59:12;;;;;;;9.48;3.67;;;;;;;20.91;44.09;100286.88;7737710;32;37070;-74
2022/05/08 18:08:03;;;;;;;9.15;3.87;;;;;;;20.62;45.90;100296.69;7711373;32;39432;-75
2022/05/08 18:12:19;;;;;;;6.72;3.55;;;;;;;20.76;46.01;100296.50;7711394;32;38712;-75
2022/05/08 18:16:36;;;;;;;6.37;3.65;;;;;;;20.85;45.78;100304.78;7711142;32;37147;-75
2022/05/08 18:20:52;;;;;;;7.25;3.28;;;;;;;20.49;45.92;100308.72;7711148;32;39416;-75
2022/05/08 18:25:10;;;;;;;7.72;3.62;;;;;;;20.30;46.48;100319.28;7711625;32;40964;-76
2022/05/08 18:29:26;;;;;;;5.53;3.35;;;;;;;20.71;45.32;100326.34;7709275;32;38725;-75
2022/05/08 18:33:43;;;;;;;7.22;3.75;;;;;;;20.54;45.61;100327.97;7711432;32;35862;-75
2022/05/08 18:37:59;;;;;;;6.82;3.75;;;;;;;20.49;45.28;100328.13;7711241;32;40040;-75
2022/05/08 18:42:19;;;;;;;9.32;3.95;;;;;;;20.45;45.52;100330.72;7711027;32;39867;-75
2022/05/08 18:46:35;;;;;;;8.00;4.53;;;;;;;19.79;47.41;100341.81;7710823;32;39122;-76
2022/05/08 18:50:51;;;;;;;18.40;10.80;;;;;;;19.68;47.92;100357.06;7710909;32;37001;-75
2022/05/08 18:55:08;;;;;;;14.48;8.95;;;;;;;19.92;49.37;100350.31;7710637;32;39469;-77
2022/05/08 18:59:25;;;;;;;6.22;3.42;;;;;;;20.10;48.06;100348.44;7716811;32;40607;-74
2022/05/08 19:03:41;;;;;;;5.43;3.47;;;;;;;19.71;47.48;100353.62;7737034;32;38033;-74
2022/05/08 19:07:57;;;;;;;7.62;3.47;;;;;;;19.73;47.24;100365.22;7737182;32;36904;-73
2022/05/08 19:12:14;;;;;;;6.18;3.50;;;;;;;19.56;47.26;100357.66;7737083;32;39342;-75
2022/05/08 19:16:36;;;;;;;8.80;4.12;;;;;;;19.16;48.77;100359.53;7735299;32;39702;-73
2022/05/08 19:20:56;;;;;;;16.15;5.10;;;;;;;19.23;48.66;100368.19;7736671;32;38237;-73
2022/05/08 19:25:17;;;;;;;13.68;4.65;;;;;;;19.05;49.45;100365.31;7709750;32;37050;-74
2022/05/08 19:29:35;;;;;;;8.45;5.03;;;;;;;18.84;50.46;100380.78;7709927;32;40076;-73
2022/05/08 19:38:28;;;;;;;6.85;4.00;;;;;;;18.71;50.66;100379.66;7710067;32;38728;-73
2022/05/08 19:42:47;;;;;;;8.88;4.15;;;;;;;18.79;49.71;100375.34;7712954;32;37065;-72
2022/05/08 19:47:17;;;;;;;7.10;3.80;;;;;;;18.81;49.39;100378.59;7711446;32;40119;-73
2022/05/08 19:51:33;;;;;;;7.18;4.15;;;;;;;18.77;49.65;100375.66;7712898;32;41040;-73
2022/05/08 19:55:49;;;;;;;6.82;3.97;;;;;;;18.39;50.43;100378.75;7712616;32;38679;-73
2022/05/08 20:00:08;;;;;;;5.20;3.95;;;;;;;18.39;50.49;100373.22;7712838;32;36976;-73
2022/05/08 20:04:24;;;;;;;6.87;3.40;;;;;;;18.36;50.31;100374.62;7712929;32;39289;-74
2022/05/08 20:08:41;;;;;;;7.37;4.00;;;;;;;18.13;50.53;100386.75;7712620;32;40733;-74
2022/05/08 20:12:57;;;;;;;6.93;4.03;;;;;;;18.01;51.42;100385.31;7712671;32;38819;-73
2022/05/08 20:17:14;;;;;;;10.20;4.90;;;;;;;17.77;53.14;100384.69;7712083;32;37899;-73
2022/05/08 20:26:05;;;;;;;7.97;4.40;;;;;;;17.84;53.74;100398.88;7712512;32;39864;-73
2022/05/08 20:30:21;;;;;;;10.10;4.93;;;;;;;18.11;53.05;100394.50;7712405;32;38669;-73
2022/05/08 20:34:38;;;;;;;10.73;5.70;;;;;;;18.17;52.84;100396.03;7712304;32;37913;-74
2022/05/08 20:38:54;;;;;;;7.93;5.60;;;;;;;17.68;54.62;100405.78;7712429;32;39300;-73
2022/05/08 20:43:12;;;;;;;8.20;4.82;;;;;;;17.85;54.15;100395.00;7712420;32;39846;-75
2022/05/08 20:47:28;;;;;;;8.48;4.65;;;;;;;17.67;54.05;100401.41;7711922;32;38710;-75
2022/05/08 20:51:45;;;;;;;9.80;5.40;;;;;;;17.81;53.22;100396.72;7711074;32;37011;-74
2022/05/08 20:56:01;;;;;;;7.72;5.00;;;;;;;17.32;55.08;100398.19;7712406;32;39305;-75
2022/05/08 21:00:18;;;;;;;7.45;4.80;;;;;;;17.79;53.09;100396.22;7711384;32;40213;-74
2022/05/08 21:04:34;;;;;;;8.50;4.60;;;;;;;17.86;52.55;100399.41;7735234;32;38643;-74